Time;durP1;ratioP1;P1;durP2;ratioP2;P2;SDS_P1;SDS_P2;PMS_P1;PMS_P2;Temp;Humidity;BMP_temperature;BMP_pressure;BME280_temperature;BME280_humidity;BME280_pressure;Samples;Min_cycle;Max_cycle;Signal;HPM_P1;HPM_P2
2021/04/20 00:02:08;;;;;;;19.33;14.60;;;11.10;71.20;;;;;;5074237;28;20017;-74
2021/04/20 00:04:34;;;;;;;19.70;13.95;;;11.00;71.20;;;;;;5075670;28;20468;-74
2021/04/20 00:07:00;;;;;;;19.83;14.63;;;11.00;71.20;;;;;;5075698;28;20035;-74
2021/04/20 00:09:26;;;;;;;20.45;14.68;;;11.00;71.40;;;;;;5075316;28;20044;-74
2021/04/20 00:11:51;;;;;;;20.33;14.90;;;10.90;71.40;;;;;;5075242;28;20064;-75
2021/04/20 00:14:17;;;;;;;20.67;15.10;;;10.90;71.40;;;;;;5075828;28;20072;-74
2021/04/20 00:16:43;;;;;;;19.48;14.82;;;10.90;71.50;;;;;;5075398;28;20031;-74
2021/04/20 00:19:08;;;;;;;20.90;14.38;;;10.90;71.60;;;;;;5075254;28;20020;-74
2021/04/20 00:21:35;;;;;;;20.80;14.80;;;10.80;71.60;;;;;;5074180;28;20067;-74
2021/04/20 00:24:04;;;;;;;19.80;15.57;;;10.90;71.70;;;;;;5073862;28;20102;-74
2021/04/20 00:26:30;;;;;;;20.20;14.60;;;10.90;71.70;;;;;;5075110;28;20091;-74
2021/04/20 00:28:56;;;;;;;20.20;14.50;;;10.90;71.70;;;;;;5075355;28;20067;-74
2021/04/20 00:31:22;;;;;;;20.52;14.50;;;10.80;71.70;;;;;;5073757;28;20480;-75
2021/04/20 00:33:47;;;;;;;20.17;14.43;;;10.80;71.70;;;;;;5075062;28;20380;-75
2021/04/20 00:36:13;;;;;;;22.30;15.10;;;10.80;71.70;;;;;;5073585;28;20472;-75
2021/04/20 00:38:40;;;;;;;21.13;15.07;;;10.80;72.40;;;;;;5073536;28;20036;-75
2021/04/20 00:41:06;;;;;;;20.58;15.52;;;10.80;71.80;;;;;;5074744;28;20025;-75
2021/04/20 00:43:36;;;;;;;20.75;14.75;;;10.80;71.80;;;;;;5074378;28;20407;-75
2021/04/20 00:46:02;;;;;;;20.05;14.75;;;10.80;71.90;;;;;;5074596;28;20513;-75
2021/04/20 00:48:28;;;;;;;21.77;15.55;;;10.80;72.00;;;;;;5075262;28;20044;-75
2021/04/20 00:50:54;;;;;;;20.63;14.75;;;10.70;72.00;;;;;;5075193;28;20028;-75
2021/04/20 00:53:22;;;;;;;18.88;14.25;;;10.70;72.60;;;;;;5074183;28;20119;-75
2021/04/20 00:55:48;;;;;;;20.27;14.50;;;10.70;72.00;;;;;;5072937;28;20082;-75
2021/04/20 00:58:13;;;;;;;21.58;15.18;;;10.70;72.10;;;;;;5073043;28;20020;-75
2021/04/20 01:00:39;;;;;;;21.10;15.43;;;10.70;72.10;;;;;;5074310;28;20112;-75
2021/04/20 01:03:05;;;;;;;22.25;15.48;;;10.70;72.20;;;;;;5072903;28;20035;-75
2021/04/20 01:05:35;;;;;;;22.58;16.00;;;10.70;72.20;;;;;;5072965;28;20074;-75
2021/04/20 01:08:12;;;;;;;22.75;15.48;;;10.60;72.30;;;;;;5072760;28;20028;-74
2021/04/20 01:10:47;;;;;;;21.08;15.48;;;10.60;72.40;;;;;;5072892;28;20082;-75
2021/04/20 01:13:14;;;;;;;24.10;16.13;;;10.60;72.30;;;;;;5072736;28;20024;-75
2021/04/20 01:15:48;;;;;;;22.50;15.75;;;10.60;72.40;;;;;;5072951;28;20436;-75
2021/04/20 01:18:16;;;;;;;22.02;15.82;;;10.60;72.50;;;;;;5072750;28;20071;-75
2021/04/20 01:20:47;;;;;;;23.80;16.13;;;10.60;72.50;;;;;;5072640;28;20060;-75
2021/04/20 01:23:18;;;;;;;22.92;16.38;;;10.50;72.50;;;;;;5072559;28;20123;-74
2021/04/20 01:25:44;;;;;;;21.45;15.98;;;10.50;72.60;;;;;;5074082;28;20036;-75
2021/04/20 01:28:10;;;;;;;24.17;15.20;;;10.50;72.60;;;;;;5073915;28;20115;-75
2021/04/20 01:30:36;;;;;;;22.30;16.05;;;10.50;72.70;;;;;;5073993;28;20047;-75
2021/04/20 01:33:06;;;;;;;21.52;15.65;;;10.50;72.70;;;;;;5072687;28;20389;-75
2021/04/20 01:35:33;;;;;;;22.15;15.52;;;10.50;72.80;;;;;;5072588;28;20032;-75
2021/04/20 01:38:06;;;;;;;22.67;15.95;;;10.50;72.80;;;;;;5072426;28;20167;-75
2021/04/20 01:40:33;;;;;;;22.98;16.27;;;10.40;72.90;;;;;;5072537;28;20050;-75
2021/04/20 01:43:00;;;;;;;24.73;17.17;;;10.40;72.80;;;;;;5074264;28;20025;-75
2021/04/20 01:45:30;;;;;;;24.88;16.92;;;10.40;72.90;;;;;;5073616;28;20127;-75
2021/04/20 01:47:57;;;;;;;22.70;16.40;;;10.40;72.90;;;;;;5073494;28;20032;-75
2021/04/20 01:50:24;;;;;;;21.77;15.98;;;10.40;73.00;;;;;;5073481;28;20032;-75
2021/04/20 01:52:51;;;;;;;23.52;16.92;;;10.30;73.00;;;;;;5072211;28;20484;-75
2021/04/20 01:55:16;;;;;;;24.20;16.45;;;10.30;73.20;;;;;;5073119;28;20058;-75
2021/04/20 01:57:46;;;;;;;24.23;15.88;;;10.20;73.20;;;;;;5073041;28;20449;-75
2021/04/20 02:00:14;;;;;;;24.95;16.65;;;10.20;73.20;;;;;;5073207;28;20449;-75
2021/04/20 02:02:40;;;;;;;24.75;16.60;;;10.20;73.30;;;;;;5071999;28;20047;-75
2021/04/20 02:05:08;;;;;;;22.58;16.50;;;10.20;73.30;;;;;;5072058;28;20055;-75
2021/04/20 02:07:35;;;;;;;22.95;15.85;;;10.20;73.40;;;;;;5073258;28;20402;-75
2021/04/20 02:10:03;;;;;;;27.90;17.88;;;10.10;73.40;;;;;;5071715;28;20029;-74
2021/04/20 02:12:29;;;;;;;22.27;16.40;;;10.10;73.40;;;;;;5071663;28;20144;-75
2021/04/20 02:14:55;;;;;;;23.55;16.55;;;10.10;73.40;;;;;;5071719;28;20051;-74
2021/04/20 02:17:23;;;;;;;21.73;16.13;;;10.10;73.50;;;;;;5073132;28;20027;-75
2021/04/20 02:19:50;;;;;;;22.80;16.52;;;10.00;73.50;;;;;;5072983;28;20475;-75
2021/04/20 02:22:16;;;;;;;24.35;16.58;;;10.00;73.50;;;;;;5071551;28;20072;-75
2021/04/20 02:24:42;;;;;;;24.58;17.23;;;10.00;73.60;;;;;;5072986;28;20484;-75
2021/04/20 02:27:08;;;;;;;24.17;17.27;;;10.00;73.70;;;;;;5072935;28;20036;-74
2021/04/20 02:29:34;;;;;;;24.73;16.67;;;10.00;73.80;;;;;;5073427;28;20495;-75
2021/04/20 02:32:00;;;;;;;24.70;16.77;;;9.90;73.80;;;;;;5072812;28;20036;-75
2021/04/20 02:34:26;;;;;;;25.52;17.00;;;9.90;73.90;;;;;;5071745;28;20432;-75
2021/04/20 02:36:54;;;;;;;22.58;16.23;;;9.90;73.90;;;;;;5071586;28;20048;-75
2021/04/20 02:39:21;;;;;;;24.92;16.40;;;9.90;74.60;;;;;;5071407;28;20012;-75
2021/04/20 02:41:49;;;;;;;25.38;16.85;;;9.90;74.00;;;;;;5071457;28;20017;-75
2021/04/20 02:44:15;;;;;;;25.98;17.85;;;9.80;74.00;;;;;;5071121;28;20471;-74
2021/04/20 02:46:42;;;;;;;27.77;18.00;;;9.80;74.00;;;;;;5071140;28;20036;-75
2021/04/20 02:49:09;;;;;;;26.98;18.35;;;9.80;74.10;;;;;;5071321;28;20437;-75
2021/04/20 02:51:37;;;;;;;25.65;17.48;;;9.80;74.20;;;;;;5072652;28;20487;-75
2021/04/20 02:54:03;;;;;;;24.92;17.20;;;9.80;74.20;;;;;;5071231;28;20028;-74
2021/04/20 02:56:30;;;;;;;24.77;17.17;;;9.80;74.20;;;;;;5071211;28;20028;-75
2021/04/20 02:58:59;;;;;;;25.02;17.90;;;9.80;74.30;;;;;;5072600;28;20016;-75
2021/04/20 03:01:27;;;;;;;25.45;17.35;;;9.70;74.90;;;;;;5071382;28;20020;-75
2021/04/20 03:03:54;;;;;;;25.80;17.25;;;9.70;74.40;;;;;;5071182;28;20387;-75
2021/04/20 03:06:20;;;;;;;26.02;17.63;;;9.70;74.40;;;;;;5072434;28;20078;-75
2021/04/20 03:08:47;;;;;;;23.95;17.15;;;9.60;74.40;;;;;;5075945;28;20052;-75
2021/04/20 03:11:21;;;;;;;24.70;17.63;;;9.60;74.50;;;;;;5075076;28;20115;-75
2021/04/20 03:13:47;;;;;;;25.67;17.90;;;9.60;75.20;;;;;;5076569;28;20035;-75
2021/04/20 03:16:17;;;;;;;27.55;17.40;;;9.50;74.60;;;;;;5076194;28;20392;-75
2021/04/20 03:18:43;;;;;;;28.27;18.15;;;9.60;74.70;;;;;;5076231;28;20059;-75
2021/04/20 03:21:16;;;;;;;26.90;18.15;;;9.50;74.80;;;;;;5074955;28;20051;-75
2021/04/20 03:23:43;;;;;;;27.88;18.10;;;9.50;74.80;;;;;;5074935;28;20029;-75
2021/04/20 03:26:24;;;;;;;25.95;17.55;;;9.50;74.80;;;;;;5076072;28;20036;-75
2021/04/20 03:28:52;;;;;;;24.83;17.45;;;9.50;74.80;;;;;;5074809;28;20047;-75
2021/04/20 03:31:18;;;;;;;25.08;17.58;;;9.40;74.80;;;;;;5074692;28;20028;-74
2021/04/20 03:33:47;;;;;;;27.02;17.90;;;9.50;74.80;;;;;;5075954;28;20041;-75
2021/04/20 03:36:21;;;;;;;28.60;18.15;;;9.40;74.80;;;;;;5076201;28;20021;-75
2021/04/20 03:38:51;;;;;;;26.95;18.05;;;9.50;74.90;;;;;;5074607;28;20081;-75
2021/04/20 03:41:32;;;;;;;26.58;18.25;;;9.40;74.90;;;;;;5074480;28;20032;-75
2021/04/20 03:44:00;;;;;;;26.85;18.63;;;9.50;75.00;;;;;;5075821;28;20082;-75
2021/04/20 03:46:32;;;;;;;28.20;18.50;;;9.40;74.90;;;;;;5074426;28;20051;-75
2021/04/20 03:49:05;;;;;;;28.55;19.00;;;9.40;74.90;;;;;;5074487;28;20028;-75
2021/04/20 03:51:32;;;;;;;26.85;18.60;;;9.40;74.90;;;;;;5075787;28;20107;-75
2021/04/20 03:54:05;;;;;;;26.10;18.27;;;9.40;75.00;;;;;;5074297;28;20035;-75
2021/04/20 03:56:32;;;;;;;27.75;19.05;;;9.30;74.90;;;;;;5074394;28;20048;-74
2021/04/20 03:59:01;;;;;;;29.25;18.90;;;9.30;75.00;;;;;;5075681;28;20103;-75
2021/04/20 04:01:39;;;;;;;27.55;19.23;;;9.30;75.00;;;;;;5074214;28;20020;-74
2021/04/20 04:04:08;;;;;;;26.60;18.50;;;9.20;75.10;;;;;;5075922;28;20107;-74
2021/04/20 04:06:36;;;;;;;27.70;18.20;;;9.20;75.20;;;;;;5075490;28;20031;-74
2021/04/20 04:09:03;;;;;;;29.38;18.77;;;9.10;75.20;;;;;;5075426;28;20039;-75
2021/04/20 04:11:36;;;;;;;27.70;17.60;;;9.10;75.40;;;;;;5074071;28;20373;-75
2021/04/20 04:14:03;;;;;;;29.10;19.23;;;9.00;75.40;;;;;;5075093;28;20502;-74
2021/04/20 04:16:31;;;;;;;29.55;19.05;;;9.00;75.40;;;;;;5073906;28;20021;-74
2021/04/20 04:18:59;;;;;;;29.65;19.00;;;9.00;75.60;;;;;;5074217;28;20624;-75
2021/04/20 04:21:30;;;;;;;29.40;19.48;;;8.90;75.60;;;;;;5073994;28;20020;-75
2021/04/20 04:24:01;;;;;;;28.90;19.77;;;8.90;75.70;;;;;;5073889;28;20083;-75
2021/04/20 04:26:35;;;;;;;28.15;18.25;;;8.80;75.80;;;;;;5073919;28;20123;-75
2021/04/20 04:29:02;;;;;;;28.92;18.85;;;8.80;75.90;;;;;;5075104;28;20039;-75
2021/04/20 04:31:31;;;;;;;27.73;18.45;;;8.70;76.00;;;;;;5073455;28;20029;-75
2021/04/20 04:33:57;;;;;;;29.88;19.30;;;8.60;76.00;;;;;;5073476;28;20160;-75
2021/04/20 04:36:23;;;;;;;28.33;19.15;;;8.60;76.10;;;;;;5073497;28;20412;-75
2021/04/20 04:38:49;;;;;;;27.77;18.50;;;8.60;76.10;;;;;;5074776;28;20035;-75
2021/04/20 04:41:16;;;;;;;26.42;17.38;;;8.60;76.10;;;;;;5073342;28;20012;-75
2021/04/20 04:43:42;;;;;;;28.30;19.13;;;8.70;76.00;;;;;;5073189;28;20364;-75
2021/04/20 04:46:09;;;;;;;28.02;18.85;;;8.70;76.00;;;;;;5073021;28;20040;-75
2021/04/20 04:48:35;;;;;;;27.88;18.98;;;8.70;76.00;;;;;;5074668;28;20036;-75
2021/04/20 04:51:02;;;;;;;26.95;17.83;;;8.70;76.00;;;;;;5073275;28;20048;-75
2021/04/20 04:53:30;;;;;;;29.42;19.88;;;8.70;76.00;;;;;;5073028;28;20479;-75
2021/04/20 04:55:57;;;;;;;29.88;18.95;;;8.70;76.00;;;;;;5074824;28;20460;-75
2021/04/20 04:58:28;;;;;;;26.73;18.13;;;8.70;76.00;;;;;;5074531;28;20123;-75
2021/04/20 05:01:01;;;;;;;28.63;18.90;;;8.70;76.00;;;;;;5074393;28;20392;-75
2021/04/20 05:03:30;;;;;;;28.25;19.50;;;8.70;76.00;;;;;;5073069;28;20082;-75
2021/04/20 05:05:57;;;;;;;27.17;17.27;;;8.70;75.90;;;;;;5074430;28;20032;-75
2021/04/20 05:08:23;;;;;;;29.10;17.88;;;8.70;75.90;;;;;;5072883;28;20093;-75
2021/04/20 05:10:50;;;;;;;27.52;17.50;;;8.70;75.90;;;;;;5072937;28;20040;-75
2021/04/20 05:13:17;;;;;;;27.88;17.90;;;8.80;75.90;;;;;;5074140;28;20362;-75
2021/04/20 05:15:42;;;;;;;27.17;18.17;;;8.70;75.80;;;;;;5074849;28;20033;-75
2021/04/20 05:18:10;;;;;;;28.15;18.23;;;8.70;75.90;;;;;;5074294;28;20158;-75
2021/04/20 05:20:41;;;;;;;28.13;18.45;;;8.70;75.90;;;;;;5072832;28;20077;-75
2021/04/20 05:23:06;;;;;;;26.90;18.13;;;8.80;76.00;;;;;;5073943;28;20056;-75
2021/04/20 05:25:32;;;;;;;26.65;18.13;;;8.80;75.80;;;;;;5073943;28;20539;-74
2021/04/20 05:27:58;;;;;;;28.58;18.55;;;8.80;75.80;;;;;;5074235;28;20062;-75
2021/04/20 05:30:25;;;;;;;27.95;19.27;;;8.90;75.80;;;;;;5073716;28;20074;-75
2021/04/20 05:32:53;;;;;;;27.63;18.40;;;9.00;75.80;;;;;;5072293;28;20047;-75
2021/04/20 05:35:21;;;;;;;29.08;19.52;;;9.00;75.70;;;;;;5073647;28;20032;-75
2021/04/20 05:37:47;;;;;;;39.13;20.80;;;9.10;75.70;;;;;;5073661;28;20028;-75
2021/04/20 05:40:19;;;;;;;37.60;23.13;;;9.10;75.70;;;;;;5073960;28;20045;-75
2021/04/20 05:42:45;;;;;;;31.92;20.35;;;9.10;75.70;;;;;;5073621;28;20020;-75
2021/04/20 05:45:13;;;;;;;29.05;19.75;;;9.20;75.60;;;;;;5072035;28;20032;-75
2021/04/20 05:47:40;;;;;;;29.27;20.15;;;9.20;75.60;;;;;;5073297;28;20459;-75
2021/04/20 05:50:08;;;;;;;29.58;20.20;;;9.30;75.60;;;;;;5073354;28;20060;-75
2021/04/20 05:52:36;;;;;;;30.17;20.15;;;9.30;75.60;;;;;;5073171;28;20067;-75
2021/04/20 05:55:03;;;;;;;31.35;19.98;;;9.40;75.60;;;;;;5073598;28;20036;-75
2021/04/20 05:57:29;;;;;;;32.30;20.75;;;9.40;75.60;;;;;;5073240;28;20357;-75
2021/04/20 05:59:56;;;;;;;28.90;19.92;;;9.50;75.50;;;;;;5071998;28;20031;-75
2021/04/20 06:02:24;;;;;;;32.58;20.77;;;9.60;75.50;;;;;;5073098;28;20388;-76
2021/04/20 06:04:57;;;;;;;32.63;20.58;;;9.60;75.40;;;;;;5071803;28;20067;-75
2021/04/20 06:07:24;;;;;;;29.05;19.88;;;9.70;75.40;;;;;;5071763;28;20332;-75
2021/04/20 06:09:50;;;;;;;30.48;20.10;;;9.80;75.40;;;;;;5073377;28;20372;-74
2021/04/20 06:12:17;;;;;;;31.83;19.95;;;9.90;75.30;;;;;;5072973;28;20095;-74
2021/04/20 06:14:43;;;;;;;30.60;21.55;;;9.90;75.20;;;;;;5072883;28;20028;-74
2021/04/20 06:17:12;;;;;;;28.90;20.08;;;10.00;75.20;;;;;;5071587;28;20017;-74
2021/04/20 06:19:39;;;;;;;29.55;20.15;;;10.10;75.20;;;;;;5071356;28;20020;-74
2021/04/20 06:22:16;;;;;;;30.63;19.80;;;10.20;75.20;;;;;;5071517;28;20357;-74
2021/04/20 06:24:42;;;;;;;27.52;18.77;;;10.30;75.10;;;;;;5072941;28;20108;-74
2021/04/20 06:27:09;;;;;;;26.52;18.05;;;10.30;75.00;;;;;;5071675;28;20033;-75
2021/04/20 06:29:37;;;;;;;28.70;19.13;;;10.40;74.90;;;;;;5072867;28;20055;-74
2021/04/20 06:32:03;;;;;;;31.10;20.63;;;10.50;74.80;;;;;;5071668;28;20373;-75
2021/04/20 06:34:29;;;;;;;28.08;18.65;;;10.60;74.80;;;;;;5072831;28;20111;-75
2021/04/20 06:36:55;;;;;;;30.27;19.77;;;10.60;74.70;;;;;;5072950;28;20121;-74
2021/04/20 06:39:21;;;;;;;29.05;19.35;;;10.70;74.60;;;;;;5072987;28;20031;-74
2021/04/20 06:41:52;;;;;;;29.77;19.33;;;10.70;74.60;;;;;;5070844;28;20036;-74
2021/04/20 06:44:36;;;;;;;29.55;19.88;;;10.70;74.50;;;;;;5072847;28;20111;-73
2021/04/20 06:47:22;;;;;;;26.60;18.90;;;10.80;74.40;;;;;;5071363;28;20178;-73
2021/04/20 06:50:08;;;;;;;30.80;19.35;;;10.90;74.30;;;;;;5072486;28;20500;-74
2021/04/20 06:52:57;;;;;;;27.13;18.25;;;11.00;74.20;;;;;;5072431;28;20432;-74
2021/04/20 06:55:53;;;;;;;30.15;19.55;;;11.00;74.10;;;;;;5072399;28;20036;-75
2021/04/20 06:58:49;;;;;;;29.17;19.58;;;11.10;74.00;;;;;;5072448;28;20108;-75
2021/04/20 07:01:29;;;;;;;27.60;19.40;;;11.10;73.90;;;;;;5071068;28;20124;-75
2021/04/20 07:04:13;;;;;;;26.23;18.55;;;11.20;74.30;;;;;;5071145;28;20025;-75
2021/04/20 07:06:54;;;;;;;30.23;21.27;;;11.30;73.90;;;;;;5070980;28;20442;-74
2021/04/20 07:09:30;;;;;;;30.67;20.55;;;11.30;73.80;;;;;;5071454;28;20035;-75
2021/04/20 07:11:56;;;;;;;31.63;20.42;;;11.40;73.70;;;;;;5073337;28;20032;-75
2021/04/20 07:14:47;;;;;;;31.88;21.00;;;11.40;73.60;;;;;;5071113;28;20499;-76
2021/04/20 07:17:19;;;;;;;27.88;20.45;;;11.50;73.60;;;;;;5071283;28;20020;-76
2021/04/20 07:20:13;;;;;;;27.58;19.98;;;11.50;73.40;;;;;;5072312;28;20107;-76
2021/04/20 07:23:09;;;;;;;29.88;21.70;;;11.60;73.40;;;;;;5072150;28;20032;-76
2021/04/20 07:25:44;;;;;;;30.02;20.45;;;11.70;73.20;;;;;;5072419;28;20050;-75
2021/04/20 07:28:17;;;;;;;30.40;20.63;;;11.70;73.10;;;;;;5072205;28;20024;-76
2021/04/20 07:31:05;;;;;;;29.35;20.83;;;11.80;73.00;;;;;;5070944;28;20035;-76
2021/04/20 07:34:02;;;;;;;30.05;20.40;;;11.80;72.90;;;;;;5070716;28;20121;-75
2021/04/20 07:36:44;;;;;;;27.77;19.08;;;12.00;72.90;;;;;;5072296;28;20226;-77
2021/04/20 07:39:18;;;;;;;29.00;20.30;;;12.00;72.70;;;;;;5070879;28;20467;-76
2021/04/20 07:42:03;;;;;;;;;;;12.10;72.50;;;;;;5072671;28;20029;-76
2021/04/20 07:44:32;;;;;;;29.60;18.85;;;12.10;72.40;;;;;;5071862;28;19912;-76
2021/04/20 07:47:05;;;;;;;26.80;18.50;;;12.20;72.20;;;;;;5072077;28;20041;-76
2021/04/20 07:49:51;;;;;;;29.07;19.10;;;12.30;72.20;;;;;;5072537;28;20025;-73
2021/04/20 07:52:30;;;;;;;24.95;17.88;;;12.40;72.00;;;;;;5071973;28;20110;-72
2021/04/20 07:55:23;;;;;;;24.63;17.20;;;12.50;71.90;;;;;;5075517;28;20074;-73
2021/04/20 07:57:51;;;;;;;25.40;18.05;;;12.50;71.60;;;;;;5076133;28;20126;-73
2021/04/20 08:00:22;;;;;;;23.90;16.92;;;12.60;71.40;;;;;;5074283;28;20040;-73
2021/04/20 08:03:11;;;;;;;24.42;17.00;;;12.60;71.10;;;;;;5074213;28;20116;-73
2021/04/20 08:05:45;;;;;;;22.25;16.20;;;12.70;71.00;;;;;;5074039;28;20028;-73
2021/04/20 08:08:29;;;;;;;;;;;12.80;70.80;;;;;;5074549;28;20024;-72
2021/04/20 08:11:04;;;;;;;19.90;14.20;;;12.90;70.70;;;;;;5074313;28;19959;-73
2021/04/20 08:13:45;;;;;;;21.73;14.80;;;13.00;70.40;;;;;;5074217;28;20028;-75
2021/04/20 08:16:21;;;;;;;21.60;15.02;;;13.10;70.10;;;;;;5075453;28;20112;-73
2021/04/20 08:18:59;;;;;;;21.60;14.30;;;13.10;69.80;;;;;;5074178;28;20036;-73
2021/04/20 08:21:29;;;;;;;25.10;14.30;;;13.20;69.60;;;;;;5075404;28;20032;-73
2021/04/20 08:23:57;;;;;;;18.98;13.75;;;13.30;69.40;;;;;;5075446;28;20028;-73
2021/04/20 08:26:26;;;;;;;20.02;14.05;;;13.40;69.20;;;;;;5074098;28;20025;-73
2021/04/20 08:29:01;;;;;;;18.80;13.52;;;13.40;68.90;;;;;;5075231;28;20044;-72
2021/04/20 08:31:47;;;;;;;18.90;13.85;;;13.50;68.70;;;;;;5073997;28;20251;-73
2021/04/20 08:34:20;;;;;;;20.20;13.75;;;13.60;68.20;;;;;;5075101;28;20028;-73
2021/04/20 08:37:00;;;;;;;21.42;13.93;;;13.70;68.10;;;;;;5073794;28;20036;-73
2021/04/20 08:39:26;;;;;;;21.38;14.27;;;13.80;67.80;;;;;;5073817;28;20497;-73
2021/04/20 08:42:50;;;;;;;18.77;13.25;;;13.90;67.60;;;;;;5075008;28;20095;-73
2021/04/20 08:45:49;;;;;;;18.67;13.63;;;14.00;67.40;;;;;;5056260;28;20102;-73
2021/04/20 08:48:49;;;;;;;16.60;12.38;;;14.10;67.30;;;;;;5055869;28;20105;-72
2021/04/20 08:51:46;;;;;;;18.35;13.27;;;14.20;67.00;;;;;;5072790;28;20123;-73
2021/04/20 08:54:29;;;;;;;17.55;13.85;;;14.30;66.80;;;;;;5066874;28;20064;-74
2021/04/20 08:57:22;;;;;;;18.90;12.73;;;14.40;66.50;;;;;;5055816;28;20171;-73
2021/04/20 09:00:10;;;;;;;17.27;13.05;;;14.50;66.20;;;;;;5072420;28;20025;-73
2021/04/20 09:02:54;;;;;;;20.10;14.18;;;14.60;66.10;;;;;;5055595;28;20051;-73
2021/04/20 09:05:47;;;;;;;16.73;12.55;;;14.60;65.90;;;;;;5055019;28;20032;-73
2021/04/20 09:08:46;;;;;;;17.48;13.32;;;14.80;65.70;;;;;;5055317;28;20544;-73
2021/04/20 09:11:34;;;;;;;19.33;13.68;;;14.90;65.40;;;;;;5072234;28;20396;-73
2021/04/20 09:14:06;;;;;;;18.85;13.90;;;15.00;65.20;;;;;;5072028;28;20032;-73
2021/04/20 09:16:44;;;;;;;21.50;14.82;;;15.00;64.90;;;;;;5073809;28;20044;-74
2021/04/20 09:19:32;;;;;;;17.95;12.73;;;15.00;64.60;;;;;;5074302;28;20048;-73
2021/04/20 09:22:09;;;;;;;18.23;13.10;;;15.10;64.50;;;;;;5068849;28;20078;-73
2021/04/20 09:25:07;;;;;;;16.20;12.23;;;15.20;64.20;;;;;;5072796;28;20032;-73
2021/04/20 09:27:58;;;;;;;14.23;11.23;;;15.30;64.00;;;;;;5072672;28;20039;-73
2021/04/20 09:30:26;;;;;;;15.45;10.68;;;15.40;63.60;;;;;;5073947;28;20032;-73
2021/04/20 09:32:56;;;;;;;15.82;12.00;;;15.60;63.40;;;;;;5074068;28;20090;-74
2021/04/20 09:35:24;;;;;;;17.35;12.57;;;15.70;63.00;;;;;;5072656;28;20017;-73
2021/04/20 09:37:52;;;;;;;14.77;10.90;;;15.80;62.60;;;;;;5072645;28;20024;-73
2021/04/20 09:40:22;;;;;;;15.90;11.95;;;15.90;62.20;;;;;;5072547;28;20111;-73
2021/04/20 09:42:58;;;;;;;13.88;10.65;;;16.10;62.00;;;;;;5073727;28;20024;-74
2021/04/20 09:45:46;;;;;;;16.00;10.60;;;16.20;61.80;;;;;;5073859;28;20036;-73
2021/04/20 09:48:20;;;;;;;12.57;10.05;;;16.30;61.30;;;;;;5072188;28;20044;-73
2021/04/20 09:51:08;;;;;;;12.20;9.75;;;16.40;61.00;;;;;;5072255;28;20455;-73
2021/04/20 09:53:55;;;;;;;12.70;10.43;;;16.50;60.40;;;;;;5074109;28;20033;-73
2021/04/20 09:56:26;;;;;;;12.45;9.30;;;16.50;59.90;;;;;;5073463;28;20024;-73
2021/04/20 09:58:52;;;;;;;13.98;10.40;;;16.70;59.50;;;;;;5072224;28;20120;-73
2021/04/20 10:01:57;;;;;;;11.32;9.20;;;16.70;59.20;;;;;;5073462;28;20119;-73
2021/04/20 10:04:52;;;;;;;10.10;8.45;;;16.80;58.90;;;;;;5072800;28;20055;-73
2021/04/20 10:07:46;;;;;;;10.05;8.30;;;16.90;58.50;;;;;;5073813;28;20029;-74
2021/04/20 10:10:50;;;;;;;9.65;8.02;;;16.90;58.00;;;;;;5072077;28;20021;-73
2021/04/20 10:13:52;;;;;;;9.48;7.72;;;17.00;57.60;;;;;;5071808;28;20391;-73
2021/04/20 10:16:49;;;;;;;11.57;7.93;;;17.10;57.40;;;;;;5072375;28;20108;-73
2021/04/20 10:19:21;;;;;;;10.98;7.65;;;17.20;57.40;;;;;;5071846;28;20043;-73
2021/04/20 10:22:17;;;;;;;9.85;7.43;;;17.30;57.40;;;;;;5071694;28;20034;-73
2021/04/20 10:24:51;;;;;;;10.55;7.68;;;17.40;57.20;;;;;;5071692;28;20052;-74
2021/04/20 10:27:21;;;;;;;9.98;7.50;;;17.40;57.00;;;;;;5071918;28;20418;-74
2021/04/20 10:30:00;;;;;;;11.32;7.72;;;17.50;56.70;;;;;;5073023;28;20054;-73
2021/04/20 10:32:31;;;;;;;10.85;8.20;;;17.60;56.40;;;;;;5071294;28;20135;-74
2021/04/20 10:34:58;;;;;;;8.75;7.05;;;17.60;56.00;;;;;;5073003;28;20528;-73
2021/04/20 10:37:39;;;;;;;9.45;7.18;;;17.70;55.80;;;;;;5071796;28;20074;-74
2021/04/20 10:40:13;;;;;;;8.45;6.45;;;17.70;55.20;;;;;;5072811;28;20029;-73
2021/04/20 10:42:44;;;;;;;7.65;5.38;;;17.80;55.00;;;;;;5072696;28;20025;-73
2021/04/20 10:45:11;;;;;;;6.97;5.80;;;17.90;54.10;;;;;;5072837;28;20021;-73
2021/04/20 10:47:40;;;;;;;8.48;6.18;;;17.90;53.40;;;;;;5071186;28;20093;-74
2021/04/20 10:50:07;;;;;;;9.30;6.57;;;18.00;53.30;;;;;;5068987;28;20036;-73
2021/04/20 10:52:38;;;;;;;6.78;5.20;;;18.00;53.10;;;;;;5072788;28;20059;-73
2021/04/20 10:55:08;;;;;;;6.43;4.85;;;18.10;52.90;;;;;;5072920;28;20104;-73
2021/04/20 10:57:36;;;;;;;5.40;4.40;;;18.20;52.30;;;;;;5071410;28;20025;-73
2021/04/20 11:00:04;;;;;;;7.68;4.40;;;18.30;51.60;;;;;;5072719;28;20025;-73
2021/04/20 11:02:42;;;;;;;6.07;4.90;;;18.30;51.20;;;;;;5071422;28;20033;-73
2021/04/20 11:05:09;;;;;;;8.77;6.45;;;18.40;51.00;;;;;;5072844;28;20109;-73
2021/04/20 11:07:43;;;;;;;7.30;6.28;;;18.50;50.90;;;;;;5072568;28;20056;-73
2021/04/20 11:10:11;;;;;;;8.75;6.50;;;18.50;50.50;;;;;;5071310;28;20028;-73
2021/04/20 11:12:49;;;;;;;6.88;5.72;;;18.50;50.60;;;;;;5071172;28;20567;-73
2021/04/20 11:15:20;;;;;;;6.15;5.07;;;18.60;50.20;;;;;;5071312;28;20031;-73
2021/04/20 11:17:55;;;;;;;6.13;5.53;;;18.60;50.30;;;;;;5071256;28;20116;-73
2021/04/20 11:20:47;;;;;;;6.82;5.50;;;18.70;49.60;;;;;;5072594;28;20036;-73
2021/04/20 11:23:24;;;;;;;8.02;6.13;;;18.80;49.30;;;;;;5071117;28;20028;-73
2021/04/20 11:26:01;;;;;;;7.60;5.82;;;18.80;49.30;;;;;;5072415;28;20483;-72
2021/04/20 11:28:45;;;;;;;7.57;6.07;;;18.90;49.10;;;;;;5073813;28;20032;-73
2021/04/20 11:31:35;;;;;;;6.32;5.18;;;18.90;48.70;;;;;;5076975;28;20430;-73
2021/04/20 11:34:13;;;;;;;6.45;5.38;;;19.00;48.80;;;;;;5074844;28;20029;-73
2021/04/20 11:36:46;;;;;;;9.27;6.68;;;19.00;49.00;;;;;;5076157;28;20032;-73
2021/04/20 11:39:25;;;;;;;8.68;6.88;;;19.10;48.60;;;;;;5076834;28;20067;-74
2021/04/20 11:42:12;;;;;;;8.38;6.00;;;19.10;48.30;;;;;;5074990;28;20139;-74
2021/04/20 11:44:42;;;;;;;6.40;5.40;;;19.20;48.60;;;;;;5075799;28;20490;-74
2021/04/20 11:47:10;;;;;;;8.55;5.75;;;19.20;48.70;;;;;;5074527;28;20032;-74
2021/04/20 11:49:37;;;;;;;8.50;6.10;;;19.20;48.40;;;;;;5075786;28;20039;-74
2021/04/20 11:52:12;;;;;;;8.15;6.13;;;19.20;48.20;;;;;;5074686;28;20016;-74
2021/04/20 11:54:38;;;;;;;7.63;5.82;;;19.30;48.10;;;;;;5076085;28;20091;-73
2021/04/20 11:57:06;;;;;;;7.72;6.30;;;19.40;48.20;;;;;;5074408;28;20449;-72
2021/04/20 11:59:32;;;;;;;8.00;6.20;;;19.50;48.10;;;;;;5074643;28;20029;-73
2021/04/20 12:02:00;;;;;;;8.23;6.65;;;19.50;47.60;;;;;;5075703;28;20060;-72
2021/04/20 12:04:34;;;;;;;8.18;6.30;;;19.60;47.50;;;;;;5074720;28;20507;-73
2021/04/20 12:07:01;;;;;;;8.13;6.32;;;19.70;47.40;;;;;;5074427;28;20024;-73
2021/04/20 12:09:31;;;;;;;7.95;5.65;;;19.80;47.30;;;;;;5075699;28;20495;-73
2021/04/20 12:11:57;;;;;;;6.05;5.43;;;19.80;47.30;;;;;;5074628;28;20032;-73
2021/04/20 12:14:27;;;;;;;6.93;5.95;;;19.80;47.20;;;;;;5075615;28;20112;-74
2021/04/20 12:16:56;;;;;;;7.50;6.25;;;19.90;47.10;;;;;;5074211;28;20071;-73
2021/04/20 12:19:26;;;;;;;6.93;5.93;;;19.90;47.00;;;;;;5074210;28;20052;-74
2021/04/20 12:21:57;;;;;;;5.38;4.70;;;20.00;47.20;;;;;;5074427;28;20447;-73
2021/04/20 12:24:24;;;;;;;8.73;6.78;;;19.90;47.00;;;;;;5075348;28;20377;-73
2021/04/20 12:27:02;;;;;;;7.75;6.30;;;20.00;47.20;;;;;;5073993;28;20021;-72
2021/04/20 12:29:37;;;;;;;8.02;7.03;;;20.10;47.20;;;;;;5074063;28;20094;-73
2021/04/20 12:32:16;;;;;;;8.10;6.65;;;20.10;47.00;;;;;;5074040;28;20051;-73
2021/04/20 12:34:43;;;;;;;7.82;6.63;;;20.20;47.10;;;;;;5075021;28;20074;-73
2021/04/20 12:37:09;;;;;;;8.63;7.53;;;20.30;47.00;;;;;;5075306;28;20033;-73
2021/04/20 12:39:41;;;;;;;8.20;6.88;;;20.30;46.70;;;;;;5072941;28;20537;-72
2021/04/20 12:42:10;;;;;;;10.27;7.47;;;20.30;46.60;;;;;;5075074;28;20035;-73
2021/04/20 12:44:39;;;;;;;8.45;7.28;;;20.40;46.50;;;;;;5073648;28;20113;-73
2021/04/20 12:47:07;;;;;;;8.55;6.78;;;20.50;46.70;;;;;;5073497;28;20078;-73
2021/04/20 12:49:36;;;;;;;9.55;8.05;;;20.50;46.70;;;;;;5073179;28;20047;-73
2021/04/20 12:52:06;;;;;;;9.77;7.43;;;20.60;46.30;;;;;;5073603;28;20097;-74
2021/04/20 12:54:37;;;;;;;10.27;7.53;;;20.60;46.10;;;;;;5073452;28;20037;-73
2021/04/20 12:57:06;;;;;;;8.18;7.05;;;20.60;46.20;;;;;;5074798;28;20021;-73
2021/04/20 12:59:33;;;;;;;7.85;6.72;;;20.80;46.20;;;;;;5073421;28;20037;-74
2021/04/20 13:02:00;;;;;;;7.13;6.40;;;20.90;46.00;;;;;;5073405;28;20035;-73
2021/04/20 13:04:29;;;;;;;8.32;7.43;;;20.90;45.80;;;;;;5073246;28;20081;-73